Time;durP1;ratioP1;P1;durP2;ratioP2;P2;SDS_P1;SDS_P2;PMS_P1;PMS_P2;Temp;Humidity;BMP_temperature;BMP_pressure;BME280_temperature;BME280_humidity;BME280_pressure;Samples;Min_cycle;Max_cycle;Signal;HPM_P1;HPM_P2
2022/08/24 00:01:10;;;;;;;19.48;14.30;;;;;;;;;;5029554;28;20174;-64
2022/08/24 00:03:36;;;;;;;16.02;14.30;;;;;;;;;;5024684;28;20188;-64
2022/08/24 00:06:02;;;;;;;18.80;14.75;;;;;;;;;;5022364;28;20189;-64
2022/08/24 00:08:28;;;;;;;22.58;14.48;;;;;;;;;;5030674;28;20210;-64
2022/08/24 00:10:54;;;;;;;19.58;14.52;;;;;;;;;;5030239;28;20194;-64
2022/08/24 00:13:20;;;;;;;20.83;14.15;;;;;;;;;;5025324;28;20551;-64
2022/08/24 00:15:45;;;;;;;21.35;14.02;;;;;;;;;;5029946;28;20556;-64
2022/08/24 00:18:11;;;;;;;19.25;14.00;;;;;;;;;;5026420;28;20595;-64
2022/08/24 00:20:38;;;;;;;20.90;13.60;;;;;;;;;;5027703;28;20173;-64
2022/08/24 00:23:04;;;;;;;17.00;13.45;;;;;;;;;;5027446;28;20668;-64
2022/08/24 00:25:30;;;;;;;24.05;16.42;;;;;;;;;;5023410;28;20226;-64
2022/08/24 00:27:56;;;;;;;22.55;16.50;;;;;;;;;;5028948;28;20182;-64
2022/08/24 00:30:21;;;;;;;18.35;16.05;;;;;;;;;;5021349;28;20670;-64
2022/08/24 00:32:47;;;;;;;21.35;16.85;;;;;;;;;;5024397;28;20198;-64
2022/08/24 00:35:17;;;;;;;17.08;14.23;;;;;;;;;;5027538;28;20213;-64
2022/08/24 00:37:43;;;;;;;28.27;19.83;;;;;;;;;;5024296;28;20296;-64
2022/08/24 00:40:13;;;;;;;24.08;16.35;;;;;;;;;;5009986;28;20215;-64
2022/08/24 00:42:40;;;;;;;18.67;14.60;;;;;;;;;;5021398;28;20270;-64
2022/08/24 00:45:08;;;;;;;19.23;15.48;;;;;;;;;;5024008;28;20182;-64
2022/08/24 00:47:57;;;;;;;20.80;15.10;;;;;;;;;;5027938;28;20195;-64
2022/08/24 00:50:34;;;;;;;16.80;14.20;;;;;;;;;;5015607;28;20209;-64
2022/08/24 00:53:03;;;;;;;18.05;14.00;;;;;;;;;;5026113;28;20620;-64
2022/08/24 00:55:35;;;;;;;20.13;14.70;;;;;;;;;;5028635;28;20646;-64
2022/08/24 00:58:06;;;;;;;20.77;14.95;;;;;;;;;;5027922;28;20626;-64
2022/08/24 01:00:38;;;;;;;17.67;14.82;;;;;;;;;;5015443;28;20554;-64
2022/08/24 01:03:05;;;;;;;17.52;14.68;;;;;;;;;;5015216;28;20185;-64
2022/08/24 01:05:32;;;;;;;17.63;15.52;;;;;;;;;;5027886;28;20233;-64
2022/08/24 01:08:00;;;;;;;24.08;16.23;;;;;;;;;;5034938;28;20166;-64
2022/08/24 01:10:28;;;;;;;19.63;15.68;;;;;;;;;;5024579;28;20211;-64
2022/08/24 01:12:59;;;;;;;18.77;14.98;;;;;;;;;;5008696;28;20187;-64
2022/08/24 01:15:25;;;;;;;22.17;16.88;;;;;;;;;;5025064;28;20178;-64
2022/08/24 01:20:35;;;;;;;21.27;17.83;;;;;;;;;;5009030;28;20218;-64
2022/08/24 01:23:15;;;;;;;20.88;17.92;;;;;;;;;;5017819;28;20185;-64
2022/08/24 01:25:43;;;;;;;27.30;18.58;;;;;;;;;;5027644;28;20244;-64
2022/08/24 01:28:17;;;;;;;21.42;18.02;;;;;;;;;;5028723;28;20554;-64
2022/08/24 01:30:44;;;;;;;17.75;15.95;;;;;;;;;;5027806;28;20225;-64
2022/08/24 01:33:20;;;;;;;24.17;17.33;;;;;;;;;;5033622;28;20563;-64
2022/08/24 01:35:45;;;;;;;23.67;20.00;;;;;;;;;;5028381;28;20205;-64
2022/08/24 01:38:11;;;;;;;22.73;19.42;;;;;;;;;;5024954;28;20609;-64
2022/08/24 01:40:45;;;;;;;27.73;20.42;;;;;;;;;;5021951;28;20564;-64
2022/08/24 01:43:12;;;;;;;23.08;19.92;;;;;;;;;;5028003;28;20264;-64
2022/08/24 01:45:37;;;;;;;25.35;19.65;;;;;;;;;;5022431;28;20178;-64
2022/08/24 01:48:03;;;;;;;25.77;20.67;;;;;;;;;;5027721;28;20197;-64
2022/08/24 01:50:30;;;;;;;30.75;21.88;;;;;;;;;;5021206;28;20198;-64
2022/08/24 01:53:00;;;;;;;28.45;22.45;;;;;;;;;;5027676;28;20257;-64
2022/08/24 01:55:25;;;;;;;23.35;20.73;;;;;;;;;;5021933;28;20486;-64
2022/08/24 01:57:51;;;;;;;25.55;22.48;;;;;;;;;;5012530;28;20262;-64
2022/08/24 02:00:16;;;;;;;24.65;21.27;;;;;;;;;;5020575;28;20262;-64
2022/08/24 02:02:43;;;;;;;26.60;20.90;;;;;;;;;;5028127;28;20221;-64
2022/08/24 02:05:15;;;;;;;29.00;22.80;;;;;;;;;;5013618;28;20281;-64
2022/08/24 02:07:41;;;;;;;25.42;22.60;;;;;;;;;;5024261;28;20178;-64
2022/08/24 02:10:10;;;;;;;26.95;23.15;;;;;;;;;;5019768;28;20243;-64
2022/08/24 02:12:37;;;;;;;25.38;22.10;;;;;;;;;;5028524;28;20182;-65
2022/08/24 02:15:05;;;;;;;27.80;22.15;;;;;;;;;;5027478;28;20182;-64
2022/08/24 02:17:30;;;;;;;24.65;21.58;;;;;;;;;;5028294;28;20645;-64
2022/08/24 02:19:56;;;;;;;27.63;22.73;;;;;;;;;;5029426;28;20270;-64
2022/08/24 02:22:21;;;;;;;29.42;24.10;;;;;;;;;;5031623;28;20178;-64
2022/08/24 02:24:46;;;;;;;30.80;24.15;;;;;;;;;;5031373;28;20230;-64
2022/08/24 02:27:13;;;;;;;29.45;23.33;;;;;;;;;;5025315;28;20345;-64
2022/08/24 02:29:38;;;;;;;28.00;23.10;;;;;;;;;;5021667;28;20178;-64
2022/08/24 02:32:04;;;;;;;25.10;21.77;;;;;;;;;;5040152;28;20213;-64
2022/08/24 02:34:29;;;;;;;26.80;20.83;;;;;;;;;;5029617;28;20215;-64
2022/08/24 02:36:55;;;;;;;26.88;21.92;;;;;;;;;;5028484;28;20209;-64
2022/08/24 02:39:20;;;;;;;28.50;22.50;;;;;;;;;;5029486;28;20189;-64
2022/08/24 02:41:46;;;;;;;25.40;22.77;;;;;;;;;;5031458;28;20227;-64
2022/08/24 02:44:11;;;;;;;26.38;23.50;;;;;;;;;;5027224;28;20186;-64
2022/08/24 02:46:36;;;;;;;31.20;23.17;;;;;;;;;;5018951;28;20231;-64
2022/08/24 02:49:02;;;;;;;27.73;24.67;;;;;;;;;;5018276;28;20179;-64
2022/08/24 02:51:30;;;;;;;25.95;21.75;;;;;;;;;;5029110;28;20307;-64
2022/08/24 02:53:57;;;;;;;24.20;20.55;;;;;;;;;;5026293;28;20212;-64
2022/08/24 02:56:23;;;;;;;22.85;20.52;;;;;;;;;;5028190;28;20181;-64
2022/08/24 02:58:49;;;;;;;25.40;22.02;;;;;;;;;;5030488;28;20689;-64
2022/08/24 03:01:16;;;;;;;25.33;21.25;;;;;;;;;;5026713;28;20174;-64
2022/08/24 03:03:42;;;;;;;25.45;21.88;;;;;;;;;;5030870;28;20190;-64
2022/08/24 03:06:08;;;;;;;23.67;19.88;;;;;;;;;;5026387;28;20193;-64
2022/08/24 03:08:34;;;;;;;23.98;18.98;;;;;;;;;;5036471;28;20833;-64
2022/08/24 03:11:00;;;;;;;20.83;18.83;;;;;;;;;;5025507;28;20197;-64
2022/08/24 03:13:27;;;;;;;20.52;18.33;;;;;;;;;;5026591;28;20262;-64
2022/08/24 03:15:54;;;;;;;23.80;18.38;;;;;;;;;;5021079;28;20209;-64
2022/08/24 03:18:20;;;;;;;22.83;18.05;;;;;;;;;;5030516;28;20178;-64
2022/08/24 03:20:46;;;;;;;20.15;17.38;;;;;;;;;;5023673;28;20529;-64
2022/08/24 03:23:11;;;;;;;19.95;17.85;;;;;;;;;;5029207;28;20442;-64
2022/08/24 03:25:36;;;;;;;21.23;18.75;;;;;;;;;;5022102;28;20229;-64
2022/08/24 03:28:02;;;;;;;23.45;18.13;;;;;;;;;;5026973;28;20182;-64
2022/08/24 03:30:28;;;;;;;21.00;18.40;;;;;;;;;;5022352;28;20198;-64
2022/08/24 03:32:53;;;;;;;20.80;18.58;;;;;;;;;;5038894;28;20206;-64
2022/08/24 03:35:21;;;;;;;21.83;18.58;;;;;;;;;;5030010;28;20178;-64
2022/08/24 03:37:50;;;;;;;21.52;19.27;;;;;;;;;;5030682;28;20265;-64
2022/08/24 03:40:16;;;;;;;23.27;19.42;;;;;;;;;;5026073;28;20182;-64
2022/08/24 03:42:41;;;;;;;25.25;19.58;;;;;;;;;;5030085;28;20220;-64
2022/08/24 03:45:08;;;;;;;24.05;19.75;;;;;;;;;;5022868;28;20186;-65
2022/08/24 03:47:34;;;;;;;23.88;20.67;;;;;;;;;;5024480;28;20610;-64
2022/08/24 03:50:00;;;;;;;23.00;20.35;;;;;;;;;;5019715;28;20191;-64
2022/08/24 03:52:25;;;;;;;26.65;20.30;;;;;;;;;;5022676;28;20195;-64
2022/08/24 03:54:51;;;;;;;24.55;20.63;;;;;;;;;;5029316;28;20612;-64
2022/08/24 03:57:16;;;;;;;24.45;20.23;;;;;;;;;;5030489;28;20269;-64
2022/08/24 03:59:42;;;;;;;24.27;20.52;;;;;;;;;;5028364;28;20649;-64
2022/08/24 04:02:08;;;;;;;26.20;22.38;;;;;;;;;;5029444;28;20265;-64
2022/08/24 04:04:33;;;;;;;26.27;22.38;;;;;;;;;;5028486;28;20182;-64
2022/08/24 04:06:59;;;;;;;25.38;22.55;;;;;;;;;;5030139;28;20277;-64
2022/08/24 04:09:24;;;;;;;24.88;20.67;;;;;;;;;;5035703;28;20211;-64
2022/08/24 04:11:50;;;;;;;31.20;20.75;;;;;;;;;;5027991;28;20260;-64
2022/08/24 04:14:16;;;;;;;23.52;19.77;;;;;;;;;;5030005;28;20177;-64
2022/08/24 04:16:41;;;;;;;21.63;19.33;;;;;;;;;;5029234;28;20218;-64
2022/08/24 04:19:06;;;;;;;23.20;20.83;;;;;;;;;;5028881;28;20665;-64
2022/08/24 04:21:35;;;;;;;24.25;21.70;;;;;;;;;;5026205;28;20178;-64
2022/08/24 04:24:04;;;;;;;23.10;20.45;;;;;;;;;;5024035;28;20245;-64
2022/08/24 04:26:30;;;;;;;24.55;21.05;;;;;;;;;;5029440;28;20225;-64
2022/08/24 04:28:56;;;;;;;26.30;21.73;;;;;;;;;;5016280;28;20216;-64
2022/08/24 04:31:22;;;;;;;23.17;20.75;;;;;;;;;;5031637;28;20205;-64
2022/08/24 04:33:49;;;;;;;26.63;22.88;;;;;;;;;;5025928;28;20182;-64
2022/08/24 04:36:16;;;;;;;27.48;22.90;;;;;;;;;;5028142;28;20281;-64
2022/08/24 04:38:42;;;;;;;24.02;21.42;;;;;;;;;;5028694;28;20269;-64
2022/08/24 04:41:13;;;;;;;25.15;21.83;;;;;;;;;;5018990;28;20268;-64
2022/08/24 04:43:39;;;;;;;28.85;24.10;;;;;;;;;;5029364;28;20660;-64
2022/08/24 04:46:05;;;;;;;27.60;24.17;;;;;;;;;;5025134;28;20298;-64
2022/08/24 04:48:31;;;;;;;24.83;22.20;;;;;;;;;;5018379;28;20569;-64
2022/08/24 04:51:01;;;;;;;26.30;22.40;;;;;;;;;;5018712;28;20214;-64
2022/08/24 04:53:27;;;;;;;27.40;23.10;;;;;;;;;;5028670;28;20462;-64
2022/08/24 04:55:52;;;;;;;29.48;26.27;;;;;;;;;;5019115;28;20187;-64
2022/08/24 04:58:18;;;;;;;30.92;27.10;;;;;;;;;;5027295;28;20170;-64
2022/08/24 05:00:44;;;;;;;30.42;27.13;;;;;;;;;;5027657;28;20657;-64
2022/08/24 05:03:11;;;;;;;31.17;26.98;;;;;;;;;;5029181;28;20174;-64
2022/08/24 05:05:41;;;;;;;33.65;28.90;;;;;;;;;;5021688;28;20205;-64
2022/08/24 05:08:06;;;;;;;34.17;28.70;;;;;;;;;;5030615;28;20263;-64
2022/08/24 05:10:32;;;;;;;35.22;30.88;;;;;;;;;;5020723;28;20250;-64
2022/08/24 05:12:57;;;;;;;35.75;30.98;;;;;;;;;;5022998;28;20231;-64
2022/08/24 05:15:23;;;;;;;36.65;30.42;;;;;;;;;;5024847;28;20190;-64
2022/08/24 05:17:49;;;;;;;33.33;29.20;;;;;;;;;;5028827;28;20185;-64
2022/08/24 05:20:14;;;;;;;38.05;29.83;;;;;;;;;;5016613;28;20922;-64
2022/08/24 05:22:40;;;;;;;33.10;29.50;;;;;;;;;;5018141;28;20181;-64
2022/08/24 05:25:06;;;;;;;36.25;30.13;;;;;;;;;;5025131;28;20226;-64
2022/08/24 05:27:34;;;;;;;37.47;29.85;;;;;;;;;;5027926;28;20273;-64
2022/08/24 05:29:59;;;;;;;34.35;30.05;;;;;;;;;;5027283;28;20289;-64
2022/08/24 05:32:25;;;;;;;39.05;32.60;;;;;;;;;;5036825;28;20292;-64
2022/08/24 05:34:50;;;;;;;38.97;33.67;;;;;;;;;;5028405;28;20181;-64
2022/08/24 05:37:16;;;;;;;37.80;33.00;;;;;;;;;;5021705;28;20185;-65
2022/08/24 05:39:41;;;;;;;34.22;29.75;;;;;;;;;;5029024;28;20194;-64
2022/08/24 05:42:06;;;;;;;33.97;30.48;;;;;;;;;;5023847;28;20265;-64
2022/08/24 05:44:32;;;;;;;34.58;30.88;;;;;;;;;;5028401;28;20177;-64
2022/08/24 05:46:58;;;;;;;37.92;31.63;;;;;;;;;;5021993;28;20577;-64
2022/08/24 05:49:24;;;;;;;34.03;30.52;;;;;;;;;;5028145;28;20209;-64
2022/08/24 05:51:50;;;;;;;35.67;31.70;;;;;;;;;;5028453;28;20636;-65
2022/08/24 05:54:16;;;;;;;37.50;33.15;;;;;;;;;;5031414;28;20272;-64
2022/08/24 05:56:41;;;;;;;36.50;32.67;;;;;;;;;;5031134;28;20743;-64
2022/08/24 05:59:06;;;;;;;46.05;36.63;;;;;;;;;;5032219;28;20645;-64
2022/08/24 06:01:32;;;;;;;43.40;37.17;;;;;;;;;;5021325;28;20189;-65
2022/08/24 06:03:58;;;;;;;41.80;36.08;;;;;;;;;;5032209;28;20224;-65
2022/08/24 06:06:25;;;;;;;43.78;34.17;;;;;;;;;;5031540;28;20190;-65
2022/08/24 06:08:54;;;;;;;41.97;36.17;;;;;;;;;;5038121;28;20193;-65
2022/08/24 06:11:25;;;;;;;44.42;37.00;;;;;;;;;;5021963;28;20210;-64
2022/08/24 06:13:52;;;;;;;39.28;35.08;;;;;;;;;;5032102;28;20189;-64
2022/08/24 06:16:19;;;;;;;47.85;39.75;;;;;;;;;;5022156;28;20194;-65
2022/08/24 06:18:44;;;;;;;47.65;40.15;;;;;;;;;;5027858;28;20209;-65
2022/08/24 06:21:13;;;;;;;45.42;38.30;;;;;;;;;;5015246;28;20553;-65
2022/08/24 06:23:40;;;;;;;41.22;36.92;;;;;;;;;;5029260;28;20182;-65
2022/08/24 06:28:51;;;;;;;46.65;39.30;;;;;;;;;;5029953;28;20236;-65
2022/08/24 06:31:17;;;;;;;53.20;45.20;;;;;;;;;;5035536;28;20213;-65
2022/08/24 06:33:43;;;;;;;60.88;51.53;;;;;;;;;;5034579;28;20666;-65
2022/08/24 06:36:08;;;;;;;57.22;50.75;;;;;;;;;;5031499;28;20265;-65
2022/08/24 06:38:34;;;;;;;58.28;51.95;;;;;;;;;;5030767;28;20182;-65
2022/08/24 06:40:59;;;;;;;66.32;54.45;;;;;;;;;;5016675;28;20175;-65
2022/08/24 06:43:25;;;;;;;61.13;54.50;;;;;;;;;;5031429;28;20189;-65
2022/08/24 06:45:51;;;;;;;68.57;56.00;;;;;;;;;;5027959;28;20187;-65
2022/08/24 06:48:17;;;;;;;66.25;54.60;;;;;;;;;;5030817;28;20261;-64
2022/08/24 06:50:43;;;;;;;61.38;53.65;;;;;;;;;;5029047;28;20316;-64
2022/08/24 06:53:08;;;;;;;62.05;53.20;;;;;;;;;;5028664;28;20188;-64
2022/08/24 06:55:33;;;;;;;60.17;53.20;;;;;;;;;;5029237;28;20174;-65
2022/08/24 06:58:01;;;;;;;61.10;53.22;;;;;;;;;;5027144;28;20269;-64
2022/08/24 07:00:27;;;;;;;58.58;51.90;;;;;;;;;;5031050;28;20193;-64
2022/08/24 07:02:52;;;;;;;59.63;51.08;;;;;;;;;;5024848;28;20192;-64
2022/08/24 07:05:18;;;;;;;61.47;52.13;;;;;;;;;;5030731;28;20181;-64
2022/08/24 07:07:43;;;;;;;59.95;50.70;;;;;;;;;;5030070;28;20196;-64
2022/08/24 07:10:09;;;;;;;56.00;50.08;;;;;;;;;;5025906;28;20232;-64
2022/08/24 07:12:35;;;;;;;54.33;48.53;;;;;;;;;;5024361;28;20229;-64
2022/08/24 07:15:02;;;;;;;54.78;48.65;;;;;;;;;;5027178;28;20175;-64
2022/08/24 07:17:28;;;;;;;52.97;46.60;;;;;;;;;;5013891;28;20183;-64
2022/08/24 07:19:54;;;;;;;62.60;46.70;;;;;;;;;;5027841;28;20178;-64
2022/08/24 07:22:19;;;;;;;53.75;46.72;;;;;;;;;;5023672;28;20638;-64
2022/08/24 07:24:45;;;;;;;52.95;46.22;;;;;;;;;;5030128;28;20230;-64
2022/08/24 07:27:11;;;;;;;52.78;42.28;;;;;;;;;;5022171;28;20182;-64
2022/08/24 07:29:38;;;;;;;48.45;39.22;;;;;;;;;;5031294;28;20576;-64
2022/08/24 07:32:04;;;;;;;42.85;36.30;;;;;;;;;;5017942;28;20238;-64
2022/08/24 07:34:29;;;;;;;39.13;34.35;;;;;;;;;;5022361;28;20206;-64
2022/08/24 07:36:55;;;;;;;37.60;33.58;;;;;;;;;;5021678;28;20182;-64
2022/08/24 07:39:20;;;;;;;35.30;30.83;;;;;;;;;;5028973;28;20190;-64
2022/08/24 07:41:46;;;;;;;35.95;30.95;;;;;;;;;;5022586;28;20214;-64
2022/08/24 07:44:12;;;;;;;37.15;30.52;;;;;;;;;;5024842;28;20191;-64
2022/08/24 07:46:39;;;;;;;30.80;25.50;;;;;;;;;;5023132;28;20634;-64
2022/08/24 07:49:06;;;;;;;32.47;27.25;;;;;;;;;;5010268;28;20616;-64
2022/08/24 07:51:32;;;;;;;28.77;24.90;;;;;;;;;;5014673;28;20221;-64
2022/08/24 07:53:57;;;;;;;30.77;25.45;;;;;;;;;;5029847;28;20183;-64
2022/08/24 07:56:23;;;;;;;30.42;26.27;;;;;;;;;;5028224;28;20182;-64
2022/08/24 07:58:48;;;;;;;26.00;23.27;;;;;;;;;;5029996;28;20555;-64
2022/08/24 08:01:14;;;;;;;28.38;22.77;;;;;;;;;;5027920;28;21248;-64
2022/08/24 08:03:39;;;;;;;24.95;19.40;;;;;;;;;;5029759;28;20174;-64
2022/08/24 08:06:07;;;;;;;25.02;18.33;;;;;;;;;;5028454;28;20190;-64
2022/08/24 08:08:37;;;;;;;23.38;17.73;;;;;;;;;;5027159;28;20221;-64
2022/08/24 08:11:03;;;;;;;27.27;18.65;;;;;;;;;;5028695;28;20620;-64
2022/08/24 08:13:30;;;;;;;23.02;17.17;;;;;;;;;;5017765;28;20265;-64
2022/08/24 08:15:56;;;;;;;20.27;15.73;;;;;;;;;;5025219;28;20177;-64
2022/08/24 08:18:22;;;;;;;18.38;14.88;;;;;;;;;;5025693;28;20189;-64
2022/08/24 08:20:47;;;;;;;18.73;14.82;;;;;;;;;;5029662;28;20260;-64
2022/08/24 08:26:00;;;;;;;20.85;12.73;;;;;;;;;;5028599;28;20602;-64
2022/08/24 08:28:31;;;;;;;18.15;12.43;;;;;;;;;;5025374;28;20198;-64
2022/08/24 08:30:57;;;;;;;21.45;15.85;;;;;;;;;;5030927;28;20724;-64
2022/08/24 08:33:22;;;;;;;18.42;13.60;;;;;;;;;;5018716;28;20278;-64
2022/08/24 08:35:48;;;;;;;15.60;12.90;;;;;;;;;;5020511;28;20592;-64
2022/08/24 08:38:13;;;;;;;16.80;13.68;;;;;;;;;;5026690;28;20561;-65
2022/08/24 08:40:55;;;;;;;16.10;11.65;;;;;;;;;;5028818;28;20672;-64
2022/08/24 08:43:42;;;;;;;12.57;11.27;;;;;;;;;;5017610;28;20178;-65
2022/08/24 08:46:43;;;;;;;17.10;10.98;;;;;;;;;;5013992;28;20170;-64
2022/08/24 08:49:46;;;;;;;13.65;9.32;;;;;;;;;;5029086;28;20185;-64
2022/08/24 08:52:32;;;;;;;15.27;7.47;;;;;;;;;;5019313;28;20190;-64
2022/08/24 08:55:31;;;;;;;9.60;8.18;;;;;;;;;;5023300;28;20179;-64
2022/08/24 08:57:59;;;;;;;9.43;5.72;;;;;;;;;;5024240;28;20209;-64
2022/08/24 09:00:43;;;;;;;8.23;5.15;;;;;;;;;;5029748;28;20171;-63
2022/08/24 09:03:53;;;;;;;14.00;6.00;;;;;;;;;;5019479;28;20229;-63
2022/08/24 09:06:39;;;;;;;8.02;5.95;;;;;;;;;;5033007;28;20512;-63
2022/08/24 09:09:29;;;;;;;12.82;5.60;;;;;;;;;;5026107;28;20197;-64
2022/08/24 09:12:26;;;;;;;8.10;4.30;;;;;;;;;;5022824;28;20221;-64
2022/08/24 09:15:10;;;;;;;4.35;3.67;;;;;;;;;;5023263;28;20519;-64
2022/08/24 09:17:43;;;;;;;6.53;3.90;;;;;;;;;;5009759;28;20542;-63
2022/08/24 09:20:11;;;;;;;5.03;3.92;;;;;;;;;;5021858;28;20175;-63
2022/08/24 09:22:47;;;;;;;6.82;4.43;;;;;;;;;;5018165;28;20188;-63
2022/08/24 09:25:15;;;;;;;4.95;4.45;;;;;;;;;;5027542;28;20233;-63
2022/08/24 09:27:53;;;;;;;8.65;5.50;;;;;;;;;;5027949;28;20205;-64
2022/08/24 09:30:26;;;;;;;8.23;4.88;;;;;;;;;;5028697;28;20798;-64
2022/08/24 09:33:20;;;;;;;8.48;4.65;;;;;;;;;;5034330;28;20292;-64
2022/08/24 09:35:58;;;;;;;5.43;4.20;;;;;;;;;;5025926;28;20170;-64
2022/08/24 09:39:17;;;;;;;6.15;4.28;;;;;;;;;;5027072;28;20181;-64
2022/08/24 09:41:57;;;;;;;7.43;4.60;;;;;;;;;;4985468;28;20187;-64
2022/08/24 09:44:44;;;;;;;5.03;3.78;;;;;;;;;;5028122;28;20526;-64
2022/08/24 09:47:31;;;;;;;6.80;5.03;;;;;;;;;;5023500;28;20175;-64
2022/08/24 09:50:23;;;;;;;6.45;4.13;;;;;;;;;;5014945;28;20178;-64
2022/08/24 09:53:11;;;;;;;7.82;4.47;;;;;;;;;;5019589;28;20519;-64
2022/08/24 09:56:14;;;;;;;9.55;4.50;;;;;;;;;;5028914;28;20193;-64
2022/08/24 09:59:05;;;;;;;7.43;3.40;;;;;;;;;;5016309;28;20239;-64
2022/08/24 10:02:08;;;;;;;5.60;3.13;;;;;;;;;;5015481;28;20190;-64
2022/08/24 10:04:55;;;;;;;4.50;2.97;;;;;;;;;;5024922;28;20693;-63
2022/08/24 10:07:35;;;;;;;3.67;2.65;;;;;;;;;;5029399;28;20649;-64
2022/08/24 10:10:15;;;;;;;7.57;3.80;;;;;;;;;;5030579;28;20269;-64
2022/08/24 10:12:52;;;;;;;7.03;2.83;;;;;;;;;;5020699;28;20179;-63
2022/08/24 10:15:33;;;;;;;4.78;3.08;;;;;;;;;;5025811;28;20549;-63
2022/08/24 10:18:26;;;;;;;6.03;3.00;;;;;;;;;;5018532;28;20186;-64
2022/08/24 10:21:22;;;;;;;4.65;3.20;;;;;;;;;;5018261;28;20183;-64
2022/08/24 10:24:29;;;;;;;4.53;2.80;;;;;;;;;;5027514;28;20726;-63
2022/08/24 10:27:34;;;;;;;4.18;2.53;;;;;;;;;;5023744;28;20198;-64
2022/08/24 10:30:23;;;;;;;7.88;2.72;;;;;;;;;;5027316;28;20256;-64
2022/08/24 10:33:09;;;;;;;3.58;1.70;;;;;;;;;;5036972;28;20206;-63
2022/08/24 10:35:54;;;;;;;3.40;1.35;;;;;;;;;;5024303;28;20208;-63
2022/08/24 10:41:59;;;;;;;1.30;1.20;;;;;;;;;;5018328;28;20224;-63
2022/08/24 10:44:39;;;;;;;5.95;1.90;;;;;;;;;;5031016;28;20229;-63
2022/08/24 10:47:27;;;;;;;1.92;1.70;;;;;;;;;;5031059;28;20556;-63
2022/08/24 10:50:07;;;;;;;4.30;1.70;;;;;;;;;;5031067;28;20538;-64
2022/08/24 10:52:48;;;;;;;3.45;1.98;;;;;;;;;;5027470;28;20195;-64
2022/08/24 10:55:26;;;;;;;4.50;1.92;;;;;;;;;;5017708;28;20186;-64
2022/08/24 10:58:04;;;;;;;4.70;2.60;;;;;;;;;;5025152;28;20189;-64
2022/08/24 11:00:30;;;;;;;4.28;2.40;;;;;;;;;;5030645;28;20205;-64
2022/08/24 11:03:14;;;;;;;4.28;2.15;;;;;;;;;;5025420;28;20376;-64
2022/08/24 11:05:50;;;;;;;8.18;2.28;;;;;;;;;;5030887;28;20637;-63
2022/08/24 11:08:19;;;;;;;4.55;2.00;;;;;;;;;;5030445;28;20189;-65
2022/08/24 11:11:00;;;;;;;2.50;2.13;;;;;;;;;;5031059;28;20351;-64
2022/08/24 11:13:26;;;;;;;3.88;1.67;;;;;;;;;;5019709;28;20186;-64
2022/08/24 11:15:55;;;;;;;4.75;1.55;;;;;;;;;;5021651;28;20166;-64
2022/08/24 11:18:21;;;;;;;5.22;2.00;;;;;;;;;;5022919;28;20269;-64
2022/08/24 11:20:49;;;;;;;3.80;1.83;;;;;;;;;;5022083;28;20175;-64
2022/08/24 11:23:19;;;;;;;5.85;1.70;;;;;;;;;;5016560;28;20187;-64
2022/08/24 11:26:00;;;;;;;6.40;1.85;;;;;;;;;;5030449;28;20284;-64
2022/08/24 11:28:37;;;;;;;2.45;1.67;;;;;;;;;;5030019;28;20178;-64
2022/08/24 11:31:03;;;;;;;3.33;1.75;;;;;;;;;;5034357;28;20197;-64
2022/08/24 11:33:33;;;;;;;2.65;1.40;;;;;;;;;;5034559;28;20186;-64
2022/08/24 11:36:01;;;;;;;2.58;1.50;;;;;;;;;;5020203;28;20564;-64
2022/08/24 11:38:33;;;;;;;2.97;1.50;;;;;;;;;;5017665;28;20182;-64
2022/08/24 11:41:08;;;;;;;3.90;1.90;;;;;;;;;;5025607;28;20594;-64
2022/08/24 11:43:57;;;;;;;3.03;1.67;;;;;;;;;;5029809;28;20196;-64
2022/08/24 11:46:31;;;;;;;1.92;1.30;;;;;;;;;;5029603;28;20594;-64
2022/08/24 11:49:09;;;;;;;3.70;1.40;;;;;;;;;;5030157;28;20197;-64
2022/08/24 11:51:50;;;;;;;3.15;1.60;;;;;;;;;;5024898;28;20209;-64
2022/08/24 11:54:41;;;;;;;2.22;1.60;;;;;;;;;;5029124;28;20196;-64
2022/08/24 11:57:14;;;;;;;2.50;1.50;;;;;;;;;;5016846;28;20630;-65
2022/08/24 12:00:04;;;;;;;4.20;1.52;;;;;;;;;;5022492;28;20261;-64
2022/08/24 12:02:41;;;;;;;6.25;1.60;;;;;;;;;;5029927;28;20182;-65
2022/08/24 12:05:29;;;;;;;1.60;1.40;;;;;;;;;;5029050;28;20181;-65
2022/08/24 12:08:20;;;;;;;3.70;1.77;;;;;;;;;;5029965;28;20170;-65
2022/08/24 12:10:45;;;;;;;4.30;1.45;;;;;;;;;;5029925;28;20224;-64
2022/08/24 12:13:37;;;;;;;1.80;1.30;;;;;;;;;;5029324;28;20697;-65
2022/08/24 12:16:32;;;;;;;3.47;1.42;;;;;;;;;;5023932;28;20281;-65
2022/08/24 12:19:28;;;;;;;3.63;1.52;;;;;;;;;;5017446;28;20208;-64
2022/08/24 12:21:57;;;;;;;2.58;1.25;;;;;;;;;;5028992;28;20182;-64
2022/08/24 12:24:33;;;;;;;3.25;1.80;;;;;;;;;;5024114;28;20229;-66
2022/08/24 12:27:13;;;;;;;4.15;1.60;;;;;;;;;;5029250;28;20403;-65
2022/08/24 12:30:05;;;;;;;3.10;1.30;;;;;;;;;;5024024;28;20212;-66
2022/08/24 12:32:45;;;;;;;1.85;1.30;;;;;;;;;;5032087;28;20202;-65
2022/08/24 12:35:31;;;;;;;2.65;1.58;;;;;;;;;;5026937;28;20644;-66
2022/08/24 12:38:15;;;;;;;1.98;1.40;;;;;;;;;;5027543;28;20185;-65
2022/08/24 12:40:55;;;;;;;5.85;2.10;;;;;;;;;;5023481;28;20174;-66
2022/08/24 12:43:59;;;;;;;5.07;1.58;;;;;;;;;;5012706;28;20665;-65
2022/08/24 12:46:25;;;;;;;2.47;1.50;;;;;;;;;;5010970;28;20181;-64
2022/08/24 12:49:04;;;;;;;1.65;1.23;;;;;;;;;;5026819;28;20181;-64
2022/08/24 12:52:06;;;;;;;2.65;1.40;;;;;;;;;;5027061;28;20209;-64
2022/08/24 12:54:45;;;;;;;2.17;1.20;;;;;;;;;;5017418;28;20212;-64
2022/08/24 12:57:51;;;;;;;2.15;1.63;;;;;;;;;;5021766;28;20199;-64
2022/08/24 13:00:35;;;;;;;2.47;1.63;;;;;;;;;;5018439;28;20663;-64
2022/08/24 13:03:04;;;;;;;3.15;1.80;;;;;;;;;;5027327;28;20692;-64
2022/08/24 13:05:40;;;;;;;4.47;1.70;;;;;;;;;;5029197;28;20207;-64
2022/08/24 13:08:30;;;;;;;3.17;1.48;;;;;;;;;;5030539;28;20650;-64
2022/08/24 13:11:22;;;;;;;4.82;1.70;;;;;;;;;;5020359;28;20189;-65
2022/08/24 13:14:11;;;;;;;4.38;1.80;;;;;;;;;;5011393;28;20194;-64
2022/08/24 13:16:46;;;;;;;2.60;1.50;;;;;;;;;;5028213;28;20724;-64
2022/08/24 13:19:32;;;;;;;3.08;1.55;;;;;;;;;;5028614;28;20641;-64
2022/08/24 13:22:10;;;;;;;2.72;1.63;;;;;;;;;;5028098;28;20181;-64
2022/08/24 13:24:38;;;;;;;1.65;1.50;;;;;;;;;;5026490;28;20236;-64
2022/08/24 13:27:13;;;;;;;3.20;1.88;;;;;;;;;;5028275;28;20640;-64
2022/08/24 13:30:04;;;;;;;2.13;1.52;;;;;;;;;;5027103;28;20185;-65
2022/08/24 13:32:45;;;;;;;2.67;1.40;;;;;;;;;;5033354;28;20213;-64
2022/08/24 13:35:35;;;;;;;3.50;1.50;;;;;;;;;;5028030;28;20189;-64
2022/08/24 13:38:23;;;;;;;3.28;1.95;;;;;;;;;;5027414;28;20184;-64
2022/08/24 13:40:56;;;;;;;5.00;1.70;;;;;;;;;;5027881;28;20200;-64
2022/08/24 13:43:34;;;;;;;2.38;1.85;;;;;;;;;;5027142;28;20177;-65
2022/08/24 13:46:13;;;;;;;2.72;1.63;;;;;;;;;;5024612;28;20303;-64
2022/08/24 13:49:16;;;;;;;2.78;1.77;;;;;;;;;;5028262;28;20212;-65
2022/08/24 13:51:54;;;;;;;2.42;1.95;;;;;;;;;;5015112;28;20245;-65
2022/08/24 13:54:36;;;;;;;2.30;1.42;;;;;;;;;;5019436;28;20224;-65
2022/08/24 13:57:35;;;;;;;1.83;1.52;;;;;;;;;;5028544;28;20182;-65
2022/08/24 14:00:16;;;;;;;3.72;1.45;;;;;;;;;;5018997;28;20174;-64
2022/08/24 14:03:06;;;;;;;2.42;1.50;;;;;;;;;;5028015;28;20194;-64
2022/08/24 14:05:53;;;;;;;2.20;1.65;;;;;;;;;;5017427;28;20200;-64
2022/08/24 14:08:48;;;;;;;1.88;1.60;;;;;;;;;;5027974;28;20209;-64
2022/08/24 14:11:38;;;;;;;2.33;1.70;;;;;;;;;;5028444;28;20285;-65
2022/08/24 14:14:17;;;;;;;2.28;1.52;;;;;;;;;;5017117;28;20264;-64
2022/08/24 14:20:05;;;;;;;2.40;1.70;;;;;;;;;;5020025;28;20280;-64
2022/08/24 14:23:04;;;;;;;6.63;1.60;;;;;;;;;;5032576;28;20181;-64
2022/08/24 14:25:34;;;;;;;2.28;1.63;;;;;;;;;;5019417;28;20226;-64
2022/08/24 14:27:59;;;;;;;3.28;1.88;;;;;;;;;;5031523;28;20186;-64
2022/08/24 14:30:24;;;;;;;1.88;1.67;;;;;;;;;;5028459;28;20691;-64
2022/08/24 14:32:58;;;;;;;1.58;1.48;;;;;;;;;;5040376;28;20201;-65
2022/08/24 14:35:29;;;;;;;1.40;1.35;;;;;;;;;;5025644;28;20208;-64
2022/08/24 14:38:10;;;;;;;4.30;1.73;;;;;;;;;;5023585;28;20273;-64
2022/08/24 14:41:02;;;;;;;2.60;1.65;;;;;;;;;;5027816;28;20182;-63
2022/08/24 14:43:46;;;;;;;1.77;1.63;;;;;;;;;;5030694;28;20177;-64
2022/08/24 14:46:30;;;;;;;1.80;1.70;;;;;;;;;;5031164;28;20185;-64
2022/08/24 14:49:15;;;;;;;4.18;2.00;;;;;;;;;;5028871;28;20180;-65
2022/08/24 14:52:04;;;;;;;4.95;1.55;;;;;;;;;;5016704;28;20197;-64
2022/08/24 14:55:12;;;;;;;1.65;1.52;;;;;;;;;;5025549;28;20556;-64
2022/08/24 14:57:56;;;;;;;1.60;1.50;;;;;;;;;;5009526;28;20204;-64
2022/08/24 15:00:43;;;;;;;3.15;1.70;;;;;;;;;;5029612;28;20423;-64
2022/08/24 15:03:50;;;;;;;2.25;1.60;;;;;;;;;;5005475;28;20501;-64
2022/08/24 15:06:25;;;;;;;2.33;1.70;;;;;;;;;;5030860;28;20223;-64
2022/08/24 15:09:25;;;;;;;3.47;1.75;;;;;;;;;;5036558;28;20552;-65
2022/08/24 15:11:58;;;;;;;5.80;1.65;;;;;;;;;;5030208;28;20338;-64
2022/08/24 15:14:41;;;;;;;1.95;1.60;;;;;;;;;;5025891;28;20198;-64
2022/08/24 15:17:12;;;;;;;3.30;1.60;;;;;;;;;;5016692;28;20177;-64